createdAt,value
2024-04-14T00:01:18.797Z,15.07
2024-04-14T00:04:10.657Z,15.58
2024-04-14T00:06:42.386Z,17.50
2024-04-14T00:09:15.577Z,18.42
2024-04-14T00:11:47.115Z,17.79
2024-04-14T00:14:18.478Z,17.03
2024-04-14T00:16:50.429Z,16.46
2024-04-14T00:19:22.866Z,16.06
2024-04-14T00:21:57.697Z,15.72
2024-04-14T00:24:29.232Z,15.49
2024-04-14T00:27:00.767Z,15.30
2024-04-14T00:29:32.310Z,15.28
2024-04-14T00:32:03.870Z,16.85
2024-04-14T00:34:35.421Z,17.85
2024-04-14T00:37:08.063Z,17.22
2024-04-14T00:39:39.789Z,16.53
2024-04-14T00:42:11.923Z,16.04
2024-04-14T00:44:43.828Z,15.69
2024-04-14T00:47:15.852Z,15.42
2024-04-14T00:49:47.405Z,15.19
2024-04-14T00:52:19.991Z,15.57
2024-04-14T00:54:53.743Z,17.38
2024-04-14T00:57:27.215Z,17.47
2024-04-14T01:00:00.363Z,16.75
2024-04-14T01:02:32.149Z,16.12
2024-04-14T01:05:03.812Z,15.66
2024-04-14T01:07:35.671Z,15.35
2024-04-14T01:10:09.280Z,15.11
2024-04-14T01:12:40.855Z,16.19
2024-04-14T01:15:14.041Z,17.50
2024-04-14T01:17:46.549Z,17.01
2024-04-14T01:20:18.768Z,16.31
2024-04-14T01:22:50.327Z,15.79
2024-04-14T01:25:23.965Z,15.41
2024-04-14T01:27:55.566Z,15.11
2024-04-14T01:30:29.247Z,15.64
2024-04-14T01:33:00.908Z,17.45
2024-04-14T01:35:32.603Z,17.52
2024-04-14T01:38:12.030Z,16.72
2024-04-14T01:40:52.095Z,15.99
2024-04-14T01:43:24.689Z,15.54
2024-04-14T01:45:56.086Z,15.20
2024-04-14T01:48:28.962Z,15.51
2024-04-14T01:51:01.207Z,17.35
2024-04-14T01:53:33.301Z,17.44
2024-04-14T01:56:05.660Z,16.65
2024-04-14T01:58:37.300Z,16.01
2024-04-14T02:01:09.286Z,15.55
2024-04-14T02:03:43.066Z,15.19
2024-04-14T02:06:14.677Z,15.59
2024-04-14T02:08:44.740Z,17.48
2024-04-14T02:11:16.335Z,18.14
2024-04-14T02:13:48.051Z,17.37
2024-04-14T02:16:19.815Z,16.56
2024-04-14T02:18:51.424Z,15.99
2024-04-14T02:21:25.240Z,15.56
2024-04-14T02:23:56.575Z,15.22
2024-04-14T02:26:27.053Z,15.40
2024-04-14T02:28:58.339Z,17.01
2024-04-14T02:31:28.325Z,18.01
2024-04-14T02:33:59.711Z,17.30
2024-04-14T02:36:31.264Z,16.51
2024-04-14T02:39:02.794Z,15.91
2024-04-14T02:41:34.346Z,15.48
2024-04-14T02:44:07.123Z,15.17
2024-04-14T02:46:38.692Z,16.17
2024-04-14T02:49:10.476Z,17.52
2024-04-14T02:51:43.167Z,17.02
2024-04-14T02:54:14.782Z,16.25
2024-04-14T02:56:46.967Z,15.66
2024-04-14T02:59:18.977Z,15.22
2024-04-14T03:01:50.887Z,15.58
2024-04-14T03:04:45.046Z,17.31
2024-04-14T03:07:14.272Z,17.24
2024-04-14T03:09:45.856Z,16.39
2024-04-14T03:12:17.375Z,15.75
2024-04-14T03:14:49.348Z,15.27
2024-04-14T03:17:22.352Z,15.63
2024-04-14T03:19:55.725Z,17.35
2024-04-14T03:22:27.491Z,17.31
2024-04-14T03:24:58.844Z,16.42
2024-04-14T03:27:30.415Z,15.75
2024-04-14T03:30:01.973Z,15.37
2024-04-14T03:32:33.543Z,16.59
2024-04-14T03:35:06.287Z,17.69
2024-04-14T03:37:40.540Z,16.95
2024-04-14T03:40:14.421Z,16.12
2024-04-14T03:42:46.094Z,15.55
2024-04-14T03:45:20.485Z,15.67
2024-04-14T03:47:53.623Z,17.41
2024-04-14T03:50:25.447Z,17.48
2024-04-14T03:52:56.802Z,16.57
2024-04-14T03:55:28.347Z,15.85
2024-04-14T03:57:59.924Z,15.35
2024-04-14T04:00:31.528Z,16.09
2024-04-14T04:03:04.303Z,17.58
2024-04-14T04:05:37.228Z,17.12
2024-04-14T04:08:10.168Z,16.25
2024-04-14T04:10:41.770Z,15.60
2024-04-14T04:13:13.325Z,15.50
2024-04-14T04:15:44.896Z,17.18
2024-04-14T04:18:16.526Z,17.76
2024-04-14T04:20:56.815Z,16.90
2024-04-14T04:23:29.175Z,16.13
2024-04-14T04:26:01.961Z,15.56
2024-04-14T04:28:33.509Z,15.88
2024-04-14T04:31:14.485Z,17.52
2024-04-14T04:33:46.160Z,17.11
2024-04-14T04:36:18.934Z,16.25
2024-04-14T04:38:50.586Z,15.62
2024-04-14T04:41:22.146Z,15.87
2024-04-14T04:43:53.897Z,17.48
2024-04-14T04:46:25.865Z,17.29
2024-04-14T04:48:58.488Z,16.47
2024-04-14T04:51:30.835Z,15.78
2024-04-14T04:54:02.577Z,15.62
2024-04-14T04:56:34.126Z,17.43
2024-04-14T04:59:06.094Z,17.79
2024-04-14T05:01:37.449Z,16.93
2024-04-14T05:04:08.419Z,16.23
2024-04-14T05:06:39.988Z,15.74
2024-04-14T05:09:13.740Z,15.79
2024-04-14T05:11:45.297Z,17.57
2024-04-14T05:14:16.859Z,18.09
2024-04-14T05:16:48.612Z,17.22
2024-04-14T05:19:20.195Z,16.54
2024-04-14T05:21:51.986Z,16.04
2024-04-14T05:24:23.485Z,15.71
2024-04-14T05:26:55.042Z,16.46
2024-04-14T05:29:28.293Z,18.17
2024-04-14T05:31:59.810Z,17.90
2024-04-14T05:34:31.338Z,17.12
2024-04-14T05:37:04.264Z,16.55
2024-04-14T05:39:37.578Z,16.14
2024-04-14T05:42:09.756Z,15.87
2024-04-14T05:44:48.726Z,16.39
2024-04-14T05:47:20.374Z,18.07
2024-04-14T05:49:52.657Z,17.72
2024-04-14T05:52:25.132Z,17.08
2024-04-14T05:54:56.778Z,16.64
2024-04-14T05:57:28.264Z,16.37
2024-04-14T06:00:01.013Z,16.15
2024-04-14T06:02:32.597Z,16.00
2024-04-14T06:05:08.023Z,16.38
2024-04-14T06:07:39.898Z,18.40
2024-04-14T06:10:11.945Z,18.61
2024-04-14T06:12:43.281Z,18.01
2024-04-14T06:15:14.853Z,17.47
2024-04-14T06:17:46.464Z,17.13
2024-04-14T06:20:18.516Z,16.92
2024-04-14T06:22:50.133Z,16.77
2024-04-14T06:25:21.683Z,16.68
2024-04-14T06:27:53.272Z,16.62
2024-04-14T06:30:24.808Z,16.61
2024-04-14T06:32:56.448Z,16.61
2024-04-14T06:35:28.108Z,16.67
2024-04-14T06:38:01.108Z,16.73
2024-04-14T06:40:32.652Z,16.81
2024-04-14T06:43:13.831Z,16.90
2024-04-14T06:45:51.178Z,16.97
2024-04-14T06:48:23.105Z,17.06
2024-04-14T06:50:54.640Z,17.14
2024-04-14T06:53:26.396Z,17.21
2024-04-14T06:56:01.257Z,17.31
2024-04-14T06:58:34.902Z,17.40
2024-04-14T07:01:06.801Z,17.49
2024-04-14T07:03:38.408Z,17.57
2024-04-14T07:06:10.414Z,17.66
2024-04-14T07:08:42.286Z,17.74
2024-04-14T07:11:13.873Z,17.82
2024-04-14T07:13:45.541Z,17.91
2024-04-14T07:16:17.356Z,17.98
2024-04-14T07:18:50.083Z,18.02
2024-04-14T07:21:23.542Z,18.04
2024-04-14T07:23:55.100Z,18.08
2024-04-14T07:26:28.025Z,18.17
2024-04-14T07:29:00.042Z,18.26
2024-04-14T07:31:31.604Z,18.37
2024-04-14T07:34:04.555Z,18.42
2024-04-14T07:36:36.048Z,18.49
2024-04-14T07:39:07.631Z,18.60
2024-04-14T07:41:39.251Z,18.70
2024-04-14T07:44:10.811Z,18.77
2024-04-14T07:46:43.402Z,18.84
2024-04-14T07:49:15.186Z,18.93
2024-04-14T07:51:46.751Z,19.05
2024-04-14T07:54:18.253Z,19.17
2024-04-14T07:56:49.808Z,19.20
2024-04-14T07:59:21.574Z,19.21
2024-04-14T08:01:53.180Z,19.24
2024-04-14T08:04:24.999Z,19.28
2024-04-14T08:06:57.891Z,19.28
2024-04-14T08:09:29.222Z,19.32
2024-04-14T08:12:01.182Z,19.34
2024-04-14T08:14:32.737Z,19.35
2024-04-14T08:17:04.123Z,19.40
2024-04-14T08:19:35.644Z,19.45
2024-04-14T08:22:07.420Z,19.50
2024-04-14T08:24:39.246Z,19.55
2024-04-14T08:27:10.730Z,19.66
2024-04-14T08:29:42.278Z,19.74
2024-04-14T08:32:13.764Z,19.84
2024-04-14T08:34:45.237Z,19.94
2024-04-14T08:37:19.605Z,20.03
2024-04-14T08:39:52.816Z,20.13
2024-04-14T08:42:26.010Z,20.24
2024-04-14T08:44:58.978Z,20.40
2024-04-14T08:47:33.660Z,20.57
2024-04-14T08:50:08.830Z,20.71
2024-04-14T08:52:43.668Z,20.82
2024-04-14T08:55:15.052Z,20.96
2024-04-14T08:57:47.277Z,21.06
2024-04-14T09:00:21.826Z,21.14
2024-04-14T09:02:53.601Z,21.24
2024-04-14T09:05:25.142Z,21.37
2024-04-14T09:07:59.181Z,21.47
2024-04-14T09:10:30.711Z,21.53
2024-04-14T09:13:03.312Z,21.60
2024-04-14T09:15:42.739Z,21.64
2024-04-14T09:18:14.285Z,21.59
2024-04-14T09:20:45.952Z,21.57
2024-04-14T09:23:18.730Z,21.55
2024-04-14T09:25:51.928Z,21.50
2024-04-14T09:28:24.448Z,21.44
2024-04-14T09:30:55.929Z,21.45
2024-04-14T09:33:33.017Z,21.46
2024-04-14T09:36:04.710Z,21.48
2024-04-14T09:38:37.307Z,21.47
2024-04-14T09:41:11.593Z,21.46
2024-04-14T09:43:46.531Z,21.52
2024-04-14T09:46:19.316Z,21.57
2024-04-14T09:48:51.950Z,21.63
2024-04-14T09:51:25.443Z,21.77
2024-04-14T09:53:59.509Z,21.98
2024-04-14T09:56:31.480Z,22.14
2024-04-14T09:59:03.033Z,22.24
2024-04-14T10:01:40.197Z,22.33
2024-04-14T10:04:13.770Z,22.33
2024-04-14T10:06:46.766Z,22.21
2024-04-14T10:09:19.139Z,22.04
2024-04-14T10:11:50.640Z,21.86
2024-04-14T10:14:28.542Z,21.67
2024-04-14T10:17:01.001Z,21.52
2024-04-14T10:19:38.030Z,21.48
2024-04-14T10:22:12.462Z,21.48
2024-04-14T10:24:51.461Z,21.39
2024-04-14T10:27:23.319Z,21.27
2024-04-14T10:30:02.630Z,21.15
2024-04-14T10:32:34.295Z,21.09
2024-04-14T10:35:15.978Z,21.09
2024-04-14T10:37:57.408Z,21.19
2024-04-14T10:40:28.958Z,21.32
2024-04-14T10:43:01.626Z,21.42
2024-04-14T10:45:33.718Z,21.49
2024-04-14T10:48:05.729Z,21.53
2024-04-14T10:50:37.203Z,21.60
2024-04-14T10:53:10.396Z,21.53
2024-04-14T10:55:41.949Z,21.33
2024-04-14T10:58:13.506Z,21.10
2024-04-14T11:00:45.175Z,20.88
2024-04-14T11:03:18.102Z,20.66
2024-04-14T11:05:49.814Z,20.45
2024-04-14T11:08:22.390Z,20.29
2024-04-14T11:10:57.259Z,20.15
2024-04-14T11:13:29.631Z,20.04
2024-04-14T11:16:03.493Z,19.95
2024-04-14T11:18:37.262Z,19.89
2024-04-14T11:21:10.409Z,19.77
2024-04-14T11:23:42.110Z,19.65
2024-04-14T11:26:13.726Z,19.54
2024-04-14T11:28:45.274Z,19.43
2024-04-14T11:31:17.095Z,19.38
2024-04-14T11:33:55.770Z,19.34
2024-04-14T11:36:34.212Z,19.27
2024-04-14T11:39:06.856Z,19.23
2024-04-14T11:41:39.783Z,19.17
2024-04-14T11:44:11.758Z,19.12
2024-04-14T11:46:43.168Z,19.05
2024-04-14T11:49:14.919Z,19.00
2024-04-14T11:51:46.510Z,18.95
2024-04-14T11:54:18.026Z,18.90
2024-04-14T11:56:49.611Z,18.85
2024-04-14T11:59:21.348Z,18.79
2024-04-14T12:01:53.013Z,18.76
2024-04-14T12:04:24.474Z,18.72
2024-04-14T12:06:56.248Z,18.71
2024-04-14T12:09:27.766Z,18.72
2024-04-14T12:11:59.940Z,18.75
2024-04-14T12:14:31.498Z,18.79
2024-04-14T12:17:03.282Z,18.86
2024-04-14T12:19:34.818Z,18.93
2024-04-14T12:22:06.680Z,19.07
2024-04-14T12:24:38.344Z,19.35
2024-04-14T12:27:09.874Z,20.21
2024-04-14T12:29:45.119Z,21.60
2024-04-14T12:32:16.671Z,23.38
2024-04-14T12:34:48.225Z,25.04
2024-04-14T12:37:19.784Z,26.47
2024-04-14T12:39:53.834Z,27.36
2024-04-14T12:42:25.970Z,28.01
2024-04-14T12:44:57.248Z,28.56
2024-04-14T12:47:28.832Z,29.12
2024-04-14T12:50:00.247Z,29.08
2024-04-14T12:52:32.183Z,29.30
2024-04-14T12:55:03.815Z,29.11
2024-04-14T12:57:35.606Z,28.30
2024-04-14T13:00:11.389Z,27.67
2024-04-14T13:02:43.976Z,26.99
2024-04-14T13:05:15.896Z,26.17
2024-04-14T13:07:47.454Z,25.26
2024-04-14T13:10:19.182Z,24.50
2024-04-14T13:12:51.925Z,23.76
2024-04-14T13:15:23.357Z,23.13
2024-04-14T13:17:54.985Z,22.63
2024-04-14T13:20:26.461Z,22.22
2024-04-14T13:22:58.037Z,21.95
2024-04-14T13:25:30.592Z,21.71
2024-04-14T13:28:02.220Z,21.70
2024-04-14T13:30:34.547Z,21.69
2024-04-14T13:33:06.618Z,21.62
2024-04-14T13:35:44.933Z,21.54
2024-04-14T13:38:18.600Z,21.45
2024-04-14T13:40:50.162Z,21.33
2024-04-14T13:43:21.746Z,21.16
2024-04-14T13:45:53.583Z,20.95
2024-04-14T13:48:26.055Z,20.80
2024-04-14T13:50:57.615Z,20.75
2024-04-14T13:53:29.571Z,21.19
2024-04-14T13:56:01.335Z,21.58
2024-04-14T13:58:33.966Z,21.92
2024-04-14T14:01:10.162Z,22.30
2024-04-14T14:03:43.618Z,22.44
2024-04-14T14:06:15.542Z,22.44
2024-04-14T14:08:47.087Z,22.55
2024-04-14T14:11:18.716Z,22.74
2024-04-14T14:13:50.609Z,22.94
2024-04-14T14:16:22.263Z,22.94
2024-04-14T14:18:53.949Z,22.86
2024-04-14T14:21:25.684Z,22.86
2024-04-14T14:23:57.256Z,22.79
2024-04-14T14:26:28.796Z,22.59
2024-04-14T14:29:00.358Z,22.32
2024-04-14T14:31:31.909Z,22.11
2024-04-14T14:34:21.305Z,22.07
2024-04-14T14:36:52.877Z,22.19
2024-04-14T14:39:25.231Z,22.25
2024-04-14T14:41:56.759Z,22.29
2024-04-14T14:44:28.314Z,22.36
2024-04-14T14:46:59.871Z,22.41
2024-04-14T14:49:31.470Z,22.35
2024-04-14T14:52:03.022Z,22.33
2024-04-14T14:54:35.167Z,22.35
2024-04-14T14:57:07.739Z,22.38
2024-04-14T14:59:39.487Z,22.31
2024-04-14T15:02:11.810Z,22.08
2024-04-14T15:04:43.286Z,21.84
2024-04-14T15:07:14.799Z,21.65
2024-04-14T15:09:56.677Z,21.46
2024-04-14T15:12:28.552Z,21.32
2024-04-14T15:15:00.501Z,21.21
2024-04-14T15:17:32.274Z,21.07
2024-04-14T15:20:04.634Z,20.88
2024-04-14T15:22:36.408Z,20.65
2024-04-14T15:25:09.285Z,20.44
2024-04-14T15:27:42.426Z,20.30
2024-04-14T15:30:14.675Z,20.22
2024-04-14T15:32:46.153Z,20.13
2024-04-14T15:35:18.063Z,19.99
2024-04-14T15:37:49.869Z,19.82
2024-04-14T15:40:21.658Z,19.67
2024-04-14T15:42:53.366Z,19.47
2024-04-14T15:45:24.911Z,19.29
2024-04-14T15:47:56.583Z,19.11
2024-04-14T15:50:28.027Z,18.96
2024-04-14T15:52:59.576Z,18.85
2024-04-14T15:55:31.742Z,18.79
2024-04-14T15:58:03.336Z,18.74
2024-04-14T16:00:35.098Z,18.69
2024-04-14T16:03:07.598Z,18.62
2024-04-14T16:05:39.198Z,18.54
2024-04-14T16:08:11.168Z,18.47
2024-04-14T16:10:42.760Z,18.39
2024-04-14T16:13:14.295Z,18.39
2024-04-14T16:15:46.252Z,18.47
2024-04-14T16:18:19.264Z,18.51
2024-04-14T16:21:00.057Z,18.47
2024-04-14T16:23:34.219Z,18.34
2024-04-14T16:26:06.182Z,18.23
2024-04-14T16:28:38.145Z,18.12
2024-04-14T16:31:10.893Z,18.03
2024-04-14T16:33:42.500Z,17.96
2024-04-14T16:36:14.450Z,17.90
2024-04-14T16:38:46.014Z,17.86
2024-04-14T16:41:26.593Z,17.80
2024-04-14T16:43:58.331Z,17.73
2024-04-14T16:46:29.889Z,17.66
2024-04-14T16:49:01.550Z,17.59
2024-04-14T16:51:34.461Z,17.53
2024-04-14T16:54:06.225Z,17.47
2024-04-14T16:56:37.750Z,17.42
2024-04-14T16:59:09.307Z,17.35
2024-04-14T17:01:41.078Z,17.28
2024-04-14T17:04:12.981Z,17.21
2024-04-14T17:06:45.816Z,17.13
2024-04-14T17:09:17.509Z,17.06
2024-04-14T17:11:48.915Z,16.98
2024-04-14T17:14:21.712Z,16.91
2024-04-14T17:16:53.291Z,16.86
2024-04-14T17:19:24.821Z,16.77
2024-04-14T17:21:56.634Z,16.72
2024-04-14T17:24:28.062Z,16.65
2024-04-14T17:26:59.490Z,16.57
2024-04-14T17:29:31.232Z,16.48
2024-04-14T17:32:02.798Z,16.42
2024-04-14T17:34:34.722Z,16.35
2024-04-14T17:37:07.362Z,16.28
2024-04-14T17:39:38.910Z,16.20
2024-04-14T17:42:10.509Z,16.13
2024-04-14T17:44:44.666Z,16.05
2024-04-14T17:47:16.260Z,16.00
2024-04-14T17:49:47.663Z,15.93
2024-04-14T17:52:19.140Z,15.87
2024-04-14T17:54:50.775Z,15.81
2024-04-14T17:57:22.226Z,15.75
2024-04-14T17:59:53.790Z,15.68
2024-04-14T18:02:25.686Z,15.61
2024-04-14T18:04:57.304Z,15.55
2024-04-14T18:07:28.864Z,15.48
2024-04-14T18:10:00.537Z,15.41
2024-04-14T18:12:32.377Z,15.34
2024-04-14T18:15:04.137Z,15.27
2024-04-14T18:17:36.118Z,15.20
2024-04-14T18:20:09.440Z,15.12
2024-04-14T18:22:41.061Z,15.06
2024-04-14T18:25:14.081Z,14.99
2024-04-14T18:27:45.699Z,14.94
2024-04-14T18:30:17.776Z,14.88
2024-04-14T18:32:49.366Z,14.81
2024-04-14T18:35:21.498Z,14.74
2024-04-14T18:37:53.075Z,14.67
2024-04-14T18:40:24.773Z,14.59
2024-04-14T18:42:56.213Z,14.52
2024-04-14T18:45:27.720Z,14.46
2024-04-14T18:47:59.373Z,14.40
2024-04-14T18:50:32.790Z,14.33
2024-04-14T18:53:05.251Z,14.27
2024-04-14T18:55:36.798Z,14.20
2024-04-14T18:58:08.428Z,14.13
2024-04-14T19:00:40.602Z,14.05
2024-04-14T19:03:12.515Z,13.96
2024-04-14T19:05:46.706Z,13.88
2024-04-14T19:08:19.729Z,13.80
2024-04-14T19:10:51.271Z,13.74
2024-04-14T19:13:22.803Z,13.68
2024-04-14T19:16:01.106Z,13.63
2024-04-14T19:18:33.557Z,13.57
2024-04-14T19:21:05.588Z,13.51
2024-04-14T19:23:37.212Z,13.45
2024-04-14T19:26:11.375Z,13.37
2024-04-14T19:28:42.991Z,13.30
2024-04-14T19:31:17.712Z,13.21
2024-04-14T19:33:49.459Z,13.14
2024-04-14T19:36:21.333Z,13.08
2024-04-14T19:38:52.670Z,13.03
2024-04-14T19:41:24.242Z,12.98
2024-04-14T19:43:55.797Z,12.94
2024-04-14T19:46:27.381Z,12.90
2024-04-14T19:49:00.600Z,12.86
2024-04-14T19:51:36.810Z,12.82
2024-04-14T19:54:08.574Z,12.78
2024-04-14T19:56:40.325Z,12.73
2024-04-14T19:59:12.507Z,12.71
2024-04-14T20:01:44.590Z,12.67
2024-04-14T20:04:16.275Z,12.65
2024-04-14T20:06:47.805Z,12.61
2024-04-14T20:09:19.738Z,12.57
2024-04-14T20:11:51.313Z,12.52
2024-04-14T20:14:23.057Z,12.45
2024-04-14T20:16:54.400Z,12.38
2024-04-14T20:19:25.242Z,12.32
2024-04-14T20:21:57.069Z,12.26
2024-04-14T20:24:28.662Z,12.20
2024-04-14T20:27:00.225Z,12.15
2024-04-14T20:29:34.032Z,12.10
2024-04-14T20:32:05.998Z,12.05
2024-04-14T20:34:37.542Z,12.00
2024-04-14T20:37:09.401Z,11.93
2024-04-14T20:39:40.862Z,11.86
2024-04-14T20:42:17.160Z,11.79
2024-04-14T20:44:48.671Z,11.70
2024-04-14T20:47:21.873Z,11.61
2024-04-14T20:49:54.107Z,11.53
2024-04-14T20:52:25.804Z,11.45
2024-04-14T20:54:57.414Z,11.37
2024-04-14T20:57:28.904Z,11.29
2024-04-14T20:59:58.825Z,11.19
2024-04-14T21:02:30.433Z,11.11
2024-04-14T21:05:01.948Z,11.01
2024-04-14T21:07:33.489Z,10.92
2024-04-14T21:10:05.691Z,10.84
2024-04-14T21:12:37.260Z,10.74
2024-04-14T21:15:11.197Z,10.65
2024-04-14T21:17:44.455Z,10.56
2024-04-14T21:20:17.039Z,10.47
2024-04-14T21:22:49.774Z,10.37
2024-04-14T21:25:21.330Z,10.28
2024-04-14T21:27:52.704Z,10.19
2024-04-14T21:30:24.243Z,10.12
2024-04-14T21:32:54.192Z,10.06
2024-04-14T21:35:25.916Z,10.02
2024-04-14T21:37:57.468Z,9.96
2024-04-14T21:40:27.588Z,9.90
2024-04-14T21:42:59.195Z,9.86
2024-04-14T21:45:30.943Z,9.81
2024-04-14T21:48:02.556Z,9.77
2024-04-14T21:50:34.216Z,9.74
2024-04-14T21:53:07.022Z,9.72
2024-04-14T21:55:39.512Z,9.71
2024-04-14T21:58:10.916Z,9.71
2024-04-14T22:00:42.278Z,9.71
2024-04-14T22:03:13.630Z,9.72
2024-04-14T22:05:55.315Z,9.73
2024-04-14T22:08:28.861Z,9.72
2024-04-14T22:11:01.104Z,9.71
2024-04-14T22:13:32.752Z,9.68
2024-04-14T22:16:04.614Z,9.65
2024-04-14T22:18:36.068Z,9.61
2024-04-14T22:21:08.847Z,9.57
2024-04-14T22:23:40.398Z,9.53
2024-04-14T22:26:12.577Z,9.50
2024-04-14T22:28:44.135Z,9.44
2024-04-14T22:31:14.397Z,9.38
2024-04-14T22:33:46.019Z,9.33
2024-04-14T22:36:16.134Z,9.27
2024-04-14T22:38:47.708Z,9.25
2024-04-14T22:41:17.799Z,9.22
2024-04-14T22:43:49.354Z,9.17
2024-04-14T22:46:20.943Z,9.13
2024-04-14T22:48:52.487Z,9.10
2024-04-14T22:51:22.591Z,9.08
2024-04-14T22:53:54.552Z,9.07
2024-04-14T22:56:26.100Z,9.05
2024-04-14T22:58:57.460Z,9.02
2024-04-14T23:01:29.135Z,8.99
2024-04-14T23:04:02.736Z,8.94
2024-04-14T23:06:34.985Z,8.88
2024-04-14T23:09:04.901Z,8.84
2024-04-14T23:11:36.471Z,8.81
2024-04-14T23:14:08.012Z,8.76
2024-04-14T23:16:37.928Z,8.73
2024-04-14T23:19:09.378Z,8.70
2024-04-14T23:21:40.853Z,8.70
2024-04-14T23:24:12.204Z,8.70
2024-04-14T23:26:43.637Z,8.70
2024-04-14T23:29:14.955Z,8.69
2024-04-14T23:31:46.673Z,8.68
2024-04-14T23:34:18.489Z,8.66
2024-04-14T23:36:51.766Z,8.66
2024-04-14T23:39:23.151Z,8.66
2024-04-14T23:41:54.596Z,8.68
2024-04-14T23:44:25.880Z,8.70
2024-04-14T23:46:57.238Z,8.72
2024-04-14T23:49:28.497Z,8.74
2024-04-14T23:51:59.866Z,8.75
2024-04-14T23:54:31.719Z,8.76
2024-04-14T23:57:03.085Z,8.78
2024-04-14T23:59:34.345Z,8.81
